createdAt,value
2017-04-23T00:08:13.235Z,0
2017-04-23T00:18:27.393Z,0
2017-04-23T00:28:42.988Z,0
2017-04-23T00:38:56.852Z,0
2017-04-23T00:49:10.661Z,0
2017-04-23T00:59:26.081Z,0
2017-04-23T01:09:41.745Z,0
2017-04-23T01:19:56.735Z,0
2017-04-23T01:30:11.434Z,0
2017-04-23T01:40:25.854Z,0
2017-04-23T01:50:40.359Z,0
2017-04-23T02:00:55.795Z,0
2017-04-23T02:11:10.410Z,0
2017-04-23T02:21:24.093Z,0
2017-04-23T02:31:38.557Z,0
2017-04-23T02:41:54.106Z,0
2017-04-23T02:52:09.160Z,0
2017-04-23T03:02:24.317Z,0
2017-04-23T03:12:38.811Z,0
2017-04-23T03:22:53.959Z,0
2017-04-23T03:33:08.835Z,0
2017-04-23T03:43:23.768Z,0
2017-04-23T03:53:39.201Z,0
2017-04-23T04:03:52.916Z,0
2017-04-23T04:14:07.179Z,10
2017-04-23T04:24:21.037Z,20
2017-04-23T04:34:34.743Z,35
2017-04-23T04:44:50.270Z,50
2017-04-23T04:55:04.659Z,85
2017-04-23T05:05:19.371Z,110
2017-04-23T05:15:34.962Z,150
2017-04-23T05:25:49.685Z,185
2017-04-23T05:36:03.382Z,245
2017-04-23T05:46:18.239Z,255
2017-04-23T05:56:31.962Z,260
2017-04-23T06:06:47.585Z,335
2017-04-23T06:17:01.993Z,365
2017-04-23T06:27:16.495Z,435
2017-04-23T06:37:30.576Z,425
2017-04-23T06:47:46.054Z,660
2017-04-23T06:58:01.215Z,495
2017-04-23T07:08:16.405Z,545
2017-04-23T07:18:30.315Z,575
2017-04-23T07:28:45.667Z,610
2017-04-23T07:39:01.291Z,1155
2017-04-23T07:49:15.099Z,1010
2017-04-23T07:59:29.380Z,920
2017-04-23T08:09:43.612Z,925
2017-04-23T08:19:58.721Z,1160
2017-04-23T08:30:12.666Z,945
2017-04-23T08:40:27.962Z,1070
2017-04-23T08:50:42.122Z,975
2017-04-23T09:00:56.610Z,1130
2017-04-23T09:11:11.625Z,1670
2017-04-23T09:21:26.059Z,985
2017-04-23T09:31:41.195Z,775
2017-04-23T09:41:55.026Z,415
2017-04-23T09:52:10.383Z,700
2017-04-23T10:02:25.945Z,975
2017-04-23T10:12:40.641Z,710
2017-04-23T10:22:56.141Z,275
2017-04-23T10:33:11.350Z,490
2017-04-23T10:43:26.826Z,1070
2017-04-23T10:53:41.128Z,1100
2017-04-23T11:03:56.467Z,1675
2017-04-23T11:14:11.491Z,2135
2017-04-23T11:24:25.710Z,1830
2017-04-23T11:34:41.406Z,1400
2017-04-23T11:44:55.885Z,1585
2017-04-23T11:55:10.068Z,1960
2017-04-23T12:05:24.815Z,365
2017-04-23T12:15:38.662Z,810
2017-04-23T12:25:54.269Z,1290
2017-04-23T12:36:09.016Z,1345
2017-04-23T12:46:24.336Z,1450
2017-04-23T12:56:39.463Z,1010
2017-04-23T13:06:54.053Z,705
2017-04-23T13:17:08.054Z,2940
2017-04-23T13:27:23.591Z,1635
2017-04-23T13:37:39.258Z,350
2017-04-23T13:47:54.799Z,670
2017-04-23T13:58:10.305Z,340
2017-04-23T14:08:24.185Z,760
2017-04-23T14:18:39.553Z,685
2017-04-23T14:28:53.427Z,1165
2017-04-23T14:39:08.070Z,655
2017-04-23T14:49:23.736Z,760
2017-04-23T14:59:37.550Z,790
2017-04-23T15:09:53.005Z,660
2017-04-23T15:20:06.948Z,895
2017-04-23T15:30:20.758Z,1445
2017-04-23T15:40:35.428Z,1425
2017-04-23T15:50:50.511Z,175
2017-04-23T16:01:05.132Z,90
2017-04-23T16:11:19.496Z,100
2017-04-23T16:21:34.613Z,155
2017-04-23T16:31:50.055Z,110
2017-04-23T16:42:05.624Z,105
2017-04-23T16:52:20.999Z,100
2017-04-23T17:02:35.293Z,70
2017-04-23T17:12:49.398Z,90
2017-04-23T17:23:03.583Z,145
2017-04-23T17:33:18.869Z,130
2017-04-23T17:43:34.425Z,80
2017-04-23T17:53:48.443Z,115
2017-04-23T18:04:03.404Z,80
2017-04-23T18:14:17.197Z,55
2017-04-23T18:24:30.941Z,30
2017-04-23T18:34:45.422Z,15
2017-04-23T18:45:00.927Z,5
2017-04-23T18:55:15.590Z,0
2017-04-23T19:05:30.939Z,0
2017-04-23T19:15:45.834Z,0
2017-04-23T19:26:01.373Z,0
2017-04-23T19:36:16.702Z,0
2017-04-23T19:46:31.182Z,0
2017-04-23T19:56:46.475Z,0
2017-04-23T20:07:01.121Z,0
2017-04-23T20:17:16.256Z,0
2017-04-23T20:27:30.517Z,0
2017-04-23T20:37:44.650Z,0
2017-04-23T20:47:59.574Z,0
2017-04-23T20:58:13.493Z,0
2017-04-23T21:08:28.141Z,0
2017-04-23T21:18:42.230Z,0
2017-04-23T21:28:56.168Z,0
2017-04-23T21:39:11.375Z,0
2017-04-23T21:49:26.768Z,0
2017-04-23T21:59:40.646Z,0
2017-04-23T22:09:54.858Z,0
2017-04-23T22:20:10.195Z,0
2017-04-23T22:30:25.282Z,0
2017-04-23T22:40:39.001Z,0
2017-04-23T22:50:53.243Z,0
2017-04-23T23:01:08.706Z,0
2017-04-23T23:11:22.408Z,0
2017-04-23T23:21:37.767Z,0
2017-04-23T23:31:51.901Z,0
2017-04-23T23:42:06.933Z,0
2017-04-23T23:52:22.245Z,0
